sensor_id;sensor_type;location;lat;lon;timestamp;P1;durP1;ratioP1;P2;durP2;ratioP2
79755;SDS011;69239;50.678;12.280;2023-04-24T00:00:07;1.07;;;0.97;;
79755;SDS011;69239;50.678;12.280;2023-04-24T00:02:37;2.35;;;0.75;;
79755;SDS011;69239;50.678;12.280;2023-04-24T00:05:06;1.17;;;0.80;;
79755;SDS011;69239;50.678;12.280;2023-04-24T00:07:33;0.90;;;0.80;;
79755;SDS011;69239;50.678;12.280;2023-04-24T00:09:59;3.30;;;1.02;;
79755;SDS011;69239;50.678;12.280;2023-04-24T00:12:25;1.02;;;0.90;;
79755;SDS011;69239;50.678;12.280;2023-04-24T00:14:51;2.53;;;0.98;;
79755;SDS011;69239;50.678;12.280;2023-04-24T00:17:17;1.42;;;0.80;;
79755;SDS011;69239;50.678;12.280;2023-04-24T00:19:45;1.48;;;0.90;;
79755;SDS011;69239;50.678;12.280;2023-04-24T00:22:11;1.80;;;1.10;;
79755;SDS011;69239;50.678;12.280;2023-04-24T00:24:38;1.42;;;0.90;;
79755;SDS011;69239;50.678;12.280;2023-04-24T00:27:03;1.35;;;1.08;;
79755;SDS011;69239;50.678;12.280;2023-04-24T00:29:29;1.20;;;0.85;;
79755;SDS011;69239;50.678;12.280;2023-04-24T00:31:54;2.28;;;1.00;;
79755;SDS011;69239;50.678;12.280;2023-04-24T00:34:19;1.52;;;1.15;;
79755;SDS011;69239;50.678;12.280;2023-04-24T00:36:45;3.92;;;1.20;;
79755;SDS011;69239;50.678;12.280;2023-04-24T00:39:11;3.40;;;1.20;;
79755;SDS011;69239;50.678;12.280;2023-04-24T00:41:36;2.05;;;1.55;;
79755;SDS011;69239;50.678;12.280;2023-04-24T00:44:02;1.88;;;1.25;;
79755;SDS011;69239;50.678;12.280;2023-04-24T00:46:27;1.33;;;0.95;;
79755;SDS011;69239;50.678;12.280;2023-04-24T00:48:54;1.63;;;1.10;;
79755;SDS011;69239;50.678;12.280;2023-04-24T00:51:21;4.35;;;1.30;;
79755;SDS011;69239;50.678;12.280;2023-04-24T00:53:46;1.95;;;1.40;;
79755;SDS011;69239;50.678;12.280;2023-04-24T00:56:12;1.27;;;1.00;;
79755;SDS011;69239;50.678;12.280;2023-04-24T00:58:37;1.35;;;1.20;;
79755;SDS011;69239;50.678;12.280;2023-04-24T01:01:03;2.53;;;1.20;;
79755;SDS011;69239;50.678;12.280;2023-04-24T01:03:32;1.30;;;0.95;;
79755;SDS011;69239;50.678;12.280;2023-04-24T01:05:58;2.70;;;1.30;;
79755;SDS011;69239;50.678;12.280;2023-04-24T01:08:24;2.17;;;1.58;;
79755;SDS011;69239;50.678;12.280;2023-04-24T01:10:51;2.80;;;1.13;;
79755;SDS011;69239;50.678;12.280;2023-04-24T01:13:17;1.45;;;1.25;;
79755;SDS011;69239;50.678;12.280;2023-04-24T01:15:43;3.17;;;1.23;;
79755;SDS011;69239;50.678;12.280;2023-04-24T01:18:08;2.10;;;1.30;;
79755;SDS011;69239;50.678;12.280;2023-04-24T01:20:34;1.52;;;1.13;;
79755;SDS011;69239;50.678;12.280;2023-04-24T01:23:01;2.38;;;1.38;;
79755;SDS011;69239;50.678;12.280;2023-04-24T01:25:27;1.30;;;1.20;;
79755;SDS011;69239;50.678;12.280;2023-04-24T01:27:53;2.55;;;1.15;;
79755;SDS011;69239;50.678;12.280;2023-04-24T01:30:18;2.03;;;0.95;;
79755;SDS011;69239;50.678;12.280;2023-04-24T01:32:44;1.30;;;1.20;;
79755;SDS011;69239;50.678;12.280;2023-04-24T01:35:10;3.47;;;1.42;;
79755;SDS011;69239;50.678;12.280;2023-04-24T01:37:35;2.22;;;1.10;;
79755;SDS011;69239;50.678;12.280;2023-04-24T01:40:02;2.70;;;1.10;;
79755;SDS011;69239;50.678;12.280;2023-04-24T01:42:29;1.63;;;1.15;;
79755;SDS011;69239;50.678;12.280;2023-04-24T01:44:55;2.05;;;1.13;;
79755;SDS011;69239;50.678;12.280;2023-04-24T01:47:21;2.47;;;1.48;;
79755;SDS011;69239;50.678;12.280;2023-04-24T01:49:47;1.45;;;1.23;;
79755;SDS011;69239;50.678;12.280;2023-04-24T01:52:13;2.33;;;1.65;;
79755;SDS011;69239;50.678;12.280;2023-04-24T01:54:38;1.30;;;1.20;;
79755;SDS011;69239;50.678;12.280;2023-04-24T01:57:04;1.00;;;0.90;;
79755;SDS011;69239;50.678;12.280;2023-04-24T01:59:29;1.90;;;1.27;;
79755;SDS011;69239;50.678;12.280;2023-04-24T02:01:55;1.65;;;1.20;;
79755;SDS011;69239;50.678;12.280;2023-04-24T02:04:21;2.63;;;1.30;;
79755;SDS011;69239;50.678;12.280;2023-04-24T02:06:46;2.15;;;0.93;;
79755;SDS011;69239;50.678;12.280;2023-04-24T02:09:12;1.48;;;1.20;;
79755;SDS011;69239;50.678;12.280;2023-04-24T02:11:37;1.50;;;1.40;;
79755;SDS011;69239;50.678;12.280;2023-04-24T02:14:02;1.73;;;1.27;;
79755;SDS011;69239;50.678;12.280;2023-04-24T02:16:28;4.23;;;1.30;;
79755;SDS011;69239;50.678;12.280;2023-04-24T02:18:58;2.97;;;1.30;;
79755;SDS011;69239;50.678;12.280;2023-04-24T02:21:23;0.95;;;0.82;;
79755;SDS011;69239;50.678;12.280;2023-04-24T02:23:48;1.63;;;1.10;;
79755;SDS011;69239;50.678;12.280;2023-04-24T02:26:14;2.03;;;1.25;;
79755;SDS011;69239;50.678;12.280;2023-04-24T02:28:40;1.40;;;1.27;;
79755;SDS011;69239;50.678;12.280;2023-04-24T02:31:05;1.42;;;1.13;;
79755;SDS011;69239;50.678;12.280;2023-04-24T02:33:31;3.17;;;1.33;;
79755;SDS011;69239;50.678;12.280;2023-04-24T02:35:56;2.40;;;1.40;;
79755;SDS011;69239;50.678;12.280;2023-04-24T02:38:22;3.35;;;1.52;;
79755;SDS011;69239;50.678;12.280;2023-04-24T02:40:47;3.10;;;1.30;;
79755;SDS011;69239;50.678;12.280;2023-04-24T02:43:12;3.72;;;1.20;;
79755;SDS011;69239;50.678;12.280;2023-04-24T02:45:38;3.03;;;1.45;;
79755;SDS011;69239;50.678;12.280;2023-04-24T02:48:03;1.55;;;1.42;;
79755;SDS011;69239;50.678;12.280;2023-04-24T02:50:29;1.77;;;1.35;;
79755;SDS011;69239;50.678;12.280;2023-04-24T02:52:54;1.42;;;1.33;;
79755;SDS011;69239;50.678;12.280;2023-04-24T02:55:19;3.78;;;1.42;;
79755;SDS011;69239;50.678;12.280;2023-04-24T02:57:45;1.53;;;1.30;;
79755;SDS011;69239;50.678;12.280;2023-04-24T03:00:10;2.60;;;1.92;;
79755;SDS011;69239;50.678;12.280;2023-04-24T03:02:36;2.08;;;1.30;;
79755;SDS011;69239;50.678;12.280;2023-04-24T03:05:02;2.70;;;1.65;;
79755;SDS011;69239;50.678;12.280;2023-04-24T03:07:28;2.20;;;1.10;;
79755;SDS011;69239;50.678;12.280;2023-04-24T03:09:53;2.95;;;1.40;;
79755;SDS011;69239;50.678;12.280;2023-04-24T03:12:19;1.95;;;1.52;;
79755;SDS011;69239;50.678;12.280;2023-04-24T03:14:44;2.60;;;1.70;;
79755;SDS011;69239;50.678;12.280;2023-04-24T03:17:09;1.75;;;1.60;;
79755;SDS011;69239;50.678;12.280;2023-04-24T03:19:35;4.22;;;1.85;;
79755;SDS011;69239;50.678;12.280;2023-04-24T03:22:01;2.30;;;1.63;;
79755;SDS011;69239;50.678;12.280;2023-04-24T03:24:27;3.70;;;1.75;;
79755;SDS011;69239;50.678;12.280;2023-04-24T03:26:53;3.53;;;2.25;;
79755;SDS011;69239;50.678;12.280;2023-04-24T03:29:18;2.30;;;2.00;;
79755;SDS011;69239;50.678;12.280;2023-04-24T03:31:44;2.72;;;1.50;;
79755;SDS011;69239;50.678;12.280;2023-04-24T03:34:09;2.72;;;2.03;;
79755;SDS011;69239;50.678;12.280;2023-04-24T03:36:35;2.70;;;2.30;;
79755;SDS011;69239;50.678;12.280;2023-04-24T03:39:00;3.20;;;2.05;;
79755;SDS011;69239;50.678;12.280;2023-04-24T03:41:25;3.08;;;1.85;;
79755;SDS011;69239;50.678;12.280;2023-04-24T03:43:51;2.42;;;1.75;;
79755;SDS011;69239;50.678;12.280;2023-04-24T03:46:16;2.78;;;2.00;;
79755;SDS011;69239;50.678;12.280;2023-04-24T03:48:42;2.63;;;2.13;;
79755;SDS011;69239;50.678;12.280;2023-04-24T03:51:07;3.15;;;2.65;;
79755;SDS011;69239;50.678;12.280;2023-04-24T03:53:32;3.17;;;1.47;;
79755;SDS011;69239;50.678;12.280;2023-04-24T03:55:58;3.10;;;1.60;;
79755;SDS011;69239;50.678;12.280;2023-04-24T03:58:23;2.33;;;1.85;;
79755;SDS011;69239;50.678;12.280;2023-04-24T04:00:49;2.45;;;1.73;;
79755;SDS011;69239;50.678;12.280;2023-04-24T04:03:14;3.58;;;1.90;;
79755;SDS011;69239;50.678;12.280;2023-04-24T04:05:40;3.00;;;2.13;;
79755;SDS011;69239;50.678;12.280;2023-04-24T04:08:05;2.47;;;1.63;;
79755;SDS011;69239;50.678;12.280;2023-04-24T04:10:31;3.60;;;2.40;;
79755;SDS011;69239;50.678;12.280;2023-04-24T04:12:56;2.63;;;1.80;;
79755;SDS011;69239;50.678;12.280;2023-04-24T04:15:21;4.00;;;1.80;;
79755;SDS011;69239;50.678;12.280;2023-04-24T04:17:47;2.42;;;1.35;;
79755;SDS011;69239;50.678;12.280;2023-04-24T04:20:12;2.28;;;1.58;;
79755;SDS011;69239;50.678;12.280;2023-04-24T04:22:38;3.17;;;1.70;;
79755;SDS011;69239;50.678;12.280;2023-04-24T04:25:04;1.60;;;1.30;;
79755;SDS011;69239;50.678;12.280;2023-04-24T04:27:30;2.53;;;1.30;;
79755;SDS011;69239;50.678;12.280;2023-04-24T04:29:57;2.30;;;1.52;;
79755;SDS011;69239;50.678;12.280;2023-04-24T04:32:26;2.40;;;1.30;;
79755;SDS011;69239;50.678;12.280;2023-04-24T04:34:51;2.22;;;1.60;;
79755;SDS011;69239;50.678;12.280;2023-04-24T04:37:18;2.13;;;1.60;;
79755;SDS011;69239;50.678;12.280;2023-04-24T04:39:45;1.95;;;1.45;;
79755;SDS011;69239;50.678;12.280;2023-04-24T04:42:10;2.70;;;1.33;;
79755;SDS011;69239;50.678;12.280;2023-04-24T04:44:35;2.50;;;1.02;;
79755;SDS011;69239;50.678;12.280;2023-04-24T04:47:01;2.28;;;1.58;;
79755;SDS011;69239;50.678;12.280;2023-04-24T04:49:30;2.33;;;1.63;;
79755;SDS011;69239;50.678;12.280;2023-04-24T04:51:56;1.75;;;1.13;;
79755;SDS011;69239;50.678;12.280;2023-04-24T04:54:22;1.85;;;1.33;;
79755;SDS011;69239;50.678;12.280;2023-04-24T04:56:49;3.40;;;1.45;;
79755;SDS011;69239;50.678;12.280;2023-04-24T04:59:15;2.42;;;1.35;;
79755;SDS011;69239;50.678;12.280;2023-04-24T05:01:40;1.55;;;1.30;;
79755;SDS011;69239;50.678;12.280;2023-04-24T05:04:06;1.67;;;1.00;;
79755;SDS011;69239;50.678;12.280;2023-04-24T05:06:31;2.60;;;1.35;;
79755;SDS011;69239;50.678;12.280;2023-04-24T05:08:57;1.55;;;1.20;;
79755;SDS011;69239;50.678;12.280;2023-04-24T05:11:22;3.50;;;1.13;;
79755;SDS011;69239;50.678;12.280;2023-04-24T05:13:48;1.95;;;1.30;;
79755;SDS011;69239;50.678;12.280;2023-04-24T05:16:13;3.17;;;1.00;;
79755;SDS011;69239;50.678;12.280;2023-04-24T05:18:39;3.00;;;1.55;;
79755;SDS011;69239;50.678;12.280;2023-04-24T05:21:04;3.03;;;1.27;;
79755;SDS011;69239;50.678;12.280;2023-04-24T05:23:29;1.20;;;1.00;;
79755;SDS011;69239;50.678;12.280;2023-04-24T05:25:55;1.30;;;1.20;;
79755;SDS011;69239;50.678;12.280;2023-04-24T05:28:21;1.73;;;1.23;;
79755;SDS011;69239;50.678;12.280;2023-04-24T05:30:46;3.85;;;1.20;;
79755;SDS011;69239;50.678;12.280;2023-04-24T05:33:12;1.60;;;1.10;;
79755;SDS011;69239;50.678;12.280;2023-04-24T05:35:39;1.55;;;1.15;;
79755;SDS011;69239;50.678;12.280;2023-04-24T05:40:35;1.10;;;1.00;;
79755;SDS011;69239;50.678;12.280;2023-04-24T05:43:01;1.97;;;0.97;;
79755;SDS011;69239;50.678;12.280;2023-04-24T05:45:26;2.60;;;1.20;;
79755;SDS011;69239;50.678;12.280;2023-04-24T05:47:53;2.17;;;1.17;;
79755;SDS011;69239;50.678;12.280;2023-04-24T05:50:18;1.90;;;0.93;;
79755;SDS011;69239;50.678;12.280;2023-04-24T05:52:44;2.20;;;1.30;;
79755;SDS011;69239;50.678;12.280;2023-04-24T05:55:09;2.95;;;1.20;;
79755;SDS011;69239;50.678;12.280;2023-04-24T05:57:34;3.13;;;1.60;;
79755;SDS011;69239;50.678;12.280;2023-04-24T06:00:00;4.43;;;1.10;;
79755;SDS011;69239;50.678;12.280;2023-04-24T06:02:25;2.65;;;1.15;;
79755;SDS011;69239;50.678;12.280;2023-04-24T06:04:52;3.55;;;1.15;;
79755;SDS011;69239;50.678;12.280;2023-04-24T06:07:17;1.83;;;1.30;;
79755;SDS011;69239;50.678;12.280;2023-04-24T06:09:43;2.17;;;1.40;;
79755;SDS011;69239;50.678;12.280;2023-04-24T06:12:09;2.78;;;1.50;;
79755;SDS011;69239;50.678;12.280;2023-04-24T06:14:34;5.85;;;1.80;;
79755;SDS011;69239;50.678;12.280;2023-04-24T06:17:00;2.65;;;1.40;;
79755;SDS011;69239;50.678;12.280;2023-04-24T06:19:25;4.43;;;1.40;;
79755;SDS011;69239;50.678;12.280;2023-04-24T06:21:50;2.92;;;1.30;;
79755;SDS011;69239;50.678;12.280;2023-04-24T06:24:16;2.33;;;1.33;;
79755;SDS011;69239;50.678;12.280;2023-04-24T06:26:41;2.42;;;1.50;;
79755;SDS011;69239;50.678;12.280;2023-04-24T06:29:07;2.20;;;1.52;;
79755;SDS011;69239;50.678;12.280;2023-04-24T06:31:33;2.05;;;1.65;;
79755;SDS011;69239;50.678;12.280;2023-04-24T06:34:02;1.75;;;1.55;;
79755;SDS011;69239;50.678;12.280;2023-04-24T06:36:28;2.17;;;1.40;;
79755;SDS011;69239;50.678;12.280;2023-04-24T06:38:54;2.20;;;1.55;;
79755;SDS011;69239;50.678;12.280;2023-04-24T06:41:19;2.53;;;1.60;;
79755;SDS011;69239;50.678;12.280;2023-04-24T06:43:45;1.83;;;1.40;;
79755;SDS011;69239;50.678;12.280;2023-04-24T06:46:10;2.08;;;1.20;;
79755;SDS011;69239;50.678;12.280;2023-04-24T06:48:37;3.35;;;1.40;;
79755;SDS011;69239;50.678;12.280;2023-04-24T06:51:02;1.13;;;1.00;;
79755;SDS011;69239;50.678;12.280;2023-04-24T06:53:28;3.50;;;1.58;;
79755;SDS011;69239;50.678;12.280;2023-04-24T06:55:53;5.00;;;1.35;;
79755;SDS011;69239;50.678;12.280;2023-04-24T06:58:19;5.20;;;1.27;;
79755;SDS011;69239;50.678;12.280;2023-04-24T07:00:45;4.75;;;1.30;;
79755;SDS011;69239;50.678;12.280;2023-04-24T07:03:10;1.98;;;1.20;;
79755;SDS011;69239;50.678;12.280;2023-04-24T07:05:36;2.05;;;1.27;;
79755;SDS011;69239;50.678;12.280;2023-04-24T07:08:03;1.63;;;0.95;;
79755;SDS011;69239;50.678;12.280;2023-04-24T07:10:28;1.90;;;1.15;;
79755;SDS011;69239;50.678;12.280;2023-04-24T07:12:55;1.60;;;1.10;;
79755;SDS011;69239;50.678;12.280;2023-04-24T07:15:21;2.00;;;1.23;;
79755;SDS011;69239;50.678;12.280;2023-04-24T07:17:48;2.90;;;0.93;;
79755;SDS011;69239;50.678;12.280;2023-04-24T07:20:13;3.13;;;0.80;;
79755;SDS011;69239;50.678;12.280;2023-04-24T07:22:40;3.13;;;0.85;;
79755;SDS011;69239;50.678;12.280;2023-04-24T07:25:06;2.20;;;1.02;;
79755;SDS011;69239;50.678;12.280;2023-04-24T07:27:32;1.08;;;0.70;;
79755;SDS011;69239;50.678;12.280;2023-04-24T07:29:57;0.70;;;0.70;;
79755;SDS011;69239;50.678;12.280;2023-04-24T07:32:23;1.85;;;0.80;;
79755;SDS011;69239;50.678;12.280;2023-04-24T07:34:48;1.33;;;0.70;;
79755;SDS011;69239;50.678;12.280;2023-04-24T07:37:19;2.35;;;0.75;;
79755;SDS011;69239;50.678;12.280;2023-04-24T07:39:56;2.78;;;0.90;;
79755;SDS011;69239;50.678;12.280;2023-04-24T07:42:25;1.25;;;0.52;;
79755;SDS011;69239;50.678;12.280;2023-04-24T07:45:00;1.80;;;0.95;;
79755;SDS011;69239;50.678;12.280;2023-04-24T07:47:26;1.77;;;0.70;;
79755;SDS011;69239;50.678;12.280;2023-04-24T07:49:52;2.97;;;0.70;;
79755;SDS011;69239;50.678;12.280;2023-04-24T07:52:25;1.45;;;0.43;;
79755;SDS011;69239;50.678;12.280;2023-04-24T07:54:54;0.70;;;0.55;;
79755;SDS011;69239;50.678;12.280;2023-04-24T07:57:40;0.73;;;0.50;;
79755;SDS011;69239;50.678;12.280;2023-04-24T08:00:06;0.90;;;0.65;;
79755;SDS011;69239;50.678;12.280;2023-04-24T08:02:34;1.70;;;0.50;;
79755;SDS011;69239;50.678;12.280;2023-04-24T08:05:08;2.08;;;0.63;;
79755;SDS011;69239;50.678;12.280;2023-04-24T08:07:36;2.53;;;0.80;;
79755;SDS011;69239;50.678;12.280;2023-04-24T08:10:02;1.33;;;0.60;;
79755;SDS011;69239;50.678;12.280;2023-04-24T08:12:29;1.08;;;0.55;;
79755;SDS011;69239;50.678;12.280;2023-04-24T08:14:54;1.63;;;0.55;;
79755;SDS011;69239;50.678;12.280;2023-04-24T08:17:20;1.60;;;0.40;;
79755;SDS011;69239;50.678;12.280;2023-04-24T08:19:45;1.25;;;0.60;;
79755;SDS011;69239;50.678;12.280;2023-04-24T08:22:14;0.57;;;0.57;;
79755;SDS011;69239;50.678;12.280;2023-04-24T08:24:40;0.70;;;0.68;;
79755;SDS011;69239;50.678;12.280;2023-04-24T08:27:05;1.20;;;0.47;;
79755;SDS011;69239;50.678;12.280;2023-04-24T08:29:30;2.67;;;0.70;;
79755;SDS011;69239;50.678;12.280;2023-04-24T08:31:56;0.85;;;0.60;;
79755;SDS011;69239;50.678;12.280;2023-04-24T08:34:22;0.80;;;0.57;;
79755;SDS011;69239;50.678;12.280;2023-04-24T08:36:47;1.15;;;0.40;;
79755;SDS011;69239;50.678;12.280;2023-04-24T08:39:13;0.98;;;0.50;;
79755;SDS011;69239;50.678;12.280;2023-04-24T08:41:41;0.77;;;0.40;;
79755;SDS011;69239;50.678;12.280;2023-04-24T08:44:08;0.73;;;0.40;;
79755;SDS011;69239;50.678;12.280;2023-04-24T08:46:34;1.25;;;0.50;;
79755;SDS011;69239;50.678;12.280;2023-04-24T08:49:01;1.27;;;0.55;;
79755;SDS011;69239;50.678;12.280;2023-04-24T08:51:27;0.63;;;0.32;;
79755;SDS011;69239;50.678;12.280;2023-04-24T08:53:55;0.30;;;0.30;;
79755;SDS011;69239;50.678;12.280;2023-04-24T08:56:21;0.43;;;0.30;;
79755;SDS011;69239;50.678;12.280;2023-04-24T08:58:48;0.80;;;0.60;;
79755;SDS011;69239;50.678;12.280;2023-04-24T09:01:15;0.43;;;0.38;;
79755;SDS011;69239;50.678;12.280;2023-04-24T09:03:42;0.57;;;0.40;;
79755;SDS011;69239;50.678;12.280;2023-04-24T09:06:08;0.85;;;0.50;;
79755;SDS011;69239;50.678;12.280;2023-04-24T09:08:35;1.65;;;0.40;;
79755;SDS011;69239;50.678;12.280;2023-04-24T09:11:01;1.38;;;0.50;;
79755;SDS011;69239;50.678;12.280;2023-04-24T09:13:28;1.70;;;0.70;;
79755;SDS011;69239;50.678;12.280;2023-04-24T09:15:55;0.40;;;0.40;;
79755;SDS011;69239;50.678;12.280;2023-04-24T09:18:22;2.78;;;0.63;;
79755;SDS011;69239;50.678;12.280;2023-04-24T09:21:04;3.67;;;0.80;;
79755;SDS011;69239;50.678;12.280;2023-04-24T09:23:33;2.97;;;0.77;;
79755;SDS011;69239;50.678;12.280;2023-04-24T09:25:59;1.08;;;0.80;;
79755;SDS011;69239;50.678;12.280;2023-04-24T09:28:29;1.17;;;0.70;;
79755;SDS011;69239;50.678;12.280;2023-04-24T09:33:33;0.85;;;0.50;;
79755;SDS011;69239;50.678;12.280;2023-04-24T09:35:58;0.70;;;0.60;;
79755;SDS011;69239;50.678;12.280;2023-04-24T09:38:34;0.50;;;0.47;;
79755;SDS011;69239;50.678;12.280;2023-04-24T09:41:07;0.88;;;0.40;;
79755;SDS011;69239;50.678;12.280;2023-04-24T09:43:37;1.67;;;0.50;;
79755;SDS011;69239;50.678;12.280;2023-04-24T09:46:06;0.90;;;0.57;;
79755;SDS011;69239;50.678;12.280;2023-04-24T09:48:34;2.15;;;0.80;;
79755;SDS011;69239;50.678;12.280;2023-04-24T09:51:01;0.50;;;0.50;;
79755;SDS011;69239;50.678;12.280;2023-04-24T09:53:29;0.55;;;0.50;;
79755;SDS011;69239;50.678;12.280;2023-04-24T09:55:56;2.53;;;0.90;;
79755;SDS011;69239;50.678;12.280;2023-04-24T09:58:28;2.00;;;0.75;;
79755;SDS011;69239;50.678;12.280;2023-04-24T10:00:54;0.80;;;0.70;;
79755;SDS011;69239;50.678;12.280;2023-04-24T10:03:23;2.47;;;0.80;;
79755;SDS011;69239;50.678;12.280;2023-04-24T10:05:49;2.28;;;0.77;;
79755;SDS011;69239;50.678;12.280;2023-04-24T10:08:17;0.60;;;0.60;;
79755;SDS011;69239;50.678;12.280;2023-04-24T10:10:43;1.40;;;0.70;;
79755;SDS011;69239;50.678;12.280;2023-04-24T10:13:11;0.55;;;0.52;;
79755;SDS011;69239;50.678;12.280;2023-04-24T10:16:01;0.95;;;0.70;;
79755;SDS011;69239;50.678;12.280;2023-04-24T10:18:36;0.93;;;0.60;;
79755;SDS011;69239;50.678;12.280;2023-04-24T10:21:03;0.77;;;0.52;;
79755;SDS011;69239;50.678;12.280;2023-04-24T10:23:30;0.75;;;0.70;;
79755;SDS011;69239;50.678;12.280;2023-04-24T10:25:56;1.02;;;0.65;;
79755;SDS011;69239;50.678;12.280;2023-04-24T10:28:25;3.63;;;0.70;;
79755;SDS011;69239;50.678;12.280;2023-04-24T10:30:53;1.52;;;0.60;;
79755;SDS011;69239;50.678;12.280;2023-04-24T10:33:20;1.30;;;0.80;;
79755;SDS011;69239;50.678;12.280;2023-04-24T10:35:48;1.33;;;0.90;;
79755;SDS011;69239;50.678;12.280;2023-04-24T10:38:17;2.30;;;0.65;;
79755;SDS011;69239;50.678;12.280;2023-04-24T10:40:49;0.75;;;0.75;;
79755;SDS011;69239;50.678;12.280;2023-04-24T10:43:18;1.38;;;0.80;;
79755;SDS011;69239;50.678;12.280;2023-04-24T10:46:00;0.80;;;0.75;;
79755;SDS011;69239;50.678;12.280;2023-04-24T10:48:42;1.65;;;0.70;;
79755;SDS011;69239;50.678;12.280;2023-04-24T10:51:24;1.13;;;0.90;;
79755;SDS011;69239;50.678;12.280;2023-04-24T10:57:25;1.83;;;1.10;;
79755;SDS011;69239;50.678;12.280;2023-04-24T11:02:39;1.02;;;0.70;;
79755;SDS011;69239;50.678;12.280;2023-04-24T11:05:09;3.15;;;0.90;;
79755;SDS011;69239;50.678;12.280;2023-04-24T11:10:44;1.60;;;0.65;;
79755;SDS011;69239;50.678;12.280;2023-04-24T11:13:14;1.02;;;0.60;;
79755;SDS011;69239;50.678;12.280;2023-04-24T11:15:43;2.58;;;0.70;;
79755;SDS011;69239;50.678;12.280;2023-04-24T11:18:15;1.05;;;0.80;;
79755;SDS011;69239;50.678;12.280;2023-04-24T11:20:44;0.93;;;0.70;;
79755;SDS011;69239;50.678;12.280;2023-04-24T11:23:11;1.48;;;0.88;;
79755;SDS011;69239;50.678;12.280;2023-04-24T11:25:37;4.65;;;0.90;;
79755;SDS011;69239;50.678;12.280;2023-04-24T11:28:04;0.95;;;0.77;;
79755;SDS011;69239;50.678;12.280;2023-04-24T11:30:31;1.45;;;0.90;;
79755;SDS011;69239;50.678;12.280;2023-04-24T11:33:04;1.17;;;0.95;;
79755;SDS011;69239;50.678;12.280;2023-04-24T11:35:30;1.13;;;0.90;;
79755;SDS011;69239;50.678;12.280;2023-04-24T11:38:02;1.30;;;1.00;;
79755;SDS011;69239;50.678;12.280;2023-04-24T11:40:28;0.90;;;0.80;;
79755;SDS011;69239;50.678;12.280;2023-04-24T11:42:53;1.20;;;0.70;;
79755;SDS011;69239;50.678;12.280;2023-04-24T11:45:26;2.28;;;0.80;;
79755;SDS011;69239;50.678;12.280;2023-04-24T11:47:53;3.08;;;0.85;;
79755;SDS011;69239;50.678;12.280;2023-04-24T11:50:20;1.20;;;0.75;;
79755;SDS011;69239;50.678;12.280;2023-04-24T11:52:47;1.20;;;1.10;;
79755;SDS011;69239;50.678;12.280;2023-04-24T11:57:42;1.33;;;1.00;;
79755;SDS011;69239;50.678;12.280;2023-04-24T12:00:14;1.25;;;0.90;;
79755;SDS011;69239;50.678;12.280;2023-04-24T12:02:41;1.40;;;0.95;;
79755;SDS011;69239;50.678;12.280;2023-04-24T12:05:07;1.38;;;0.77;;
79755;SDS011;69239;50.678;12.280;2023-04-24T12:07:36;4.03;;;1.00;;
79755;SDS011;69239;50.678;12.280;2023-04-24T12:10:07;1.55;;;0.90;;
79755;SDS011;69239;50.678;12.280;2023-04-24T12:12:34;3.30;;;1.17;;
79755;SDS011;69239;50.678;12.280;2023-04-24T12:14:59;2.72;;;1.10;;
79755;SDS011;69239;50.678;12.280;2023-04-24T12:17:33;1.60;;;0.88;;
79755;SDS011;69239;50.678;12.280;2023-04-24T12:20:06;3.33;;;1.13;;
79755;SDS011;69239;50.678;12.280;2023-04-24T12:25:20;1.42;;;1.10;;
79755;SDS011;69239;50.678;12.280;2023-04-24T12:27:46;1.42;;;1.20;;
79755;SDS011;69239;50.678;12.280;2023-04-24T12:30:17;2.17;;;0.90;;
79755;SDS011;69239;50.678;12.280;2023-04-24T12:32:44;3.45;;;1.23;;
79755;SDS011;69239;50.678;12.280;2023-04-24T12:35:11;1.40;;;1.00;;
79755;SDS011;69239;50.678;12.280;2023-04-24T12:37:36;2.00;;;1.10;;
79755;SDS011;69239;50.678;12.280;2023-04-24T12:42:32;1.08;;;0.90;;
79755;SDS011;69239;50.678;12.280;2023-04-24T12:44:59;6.90;;;1.48;;
79755;SDS011;69239;50.678;12.280;2023-04-24T12:47:26;1.02;;;0.93;;
79755;SDS011;69239;50.678;12.280;2023-04-24T12:49:52;1.90;;;0.88;;
79755;SDS011;69239;50.678;12.280;2023-04-24T12:52:18;1.60;;;1.50;;
79755;SDS011;69239;50.678;12.280;2023-04-24T12:54:47;2.85;;;1.02;;
79755;SDS011;69239;50.678;12.280;2023-04-24T12:57:12;1.98;;;1.25;;
79755;SDS011;69239;50.678;12.280;2023-04-24T12:59:38;1.63;;;1.20;;
79755;SDS011;69239;50.678;12.280;2023-04-24T13:02:04;1.08;;;0.80;;
79755;SDS011;69239;50.678;12.280;2023-04-24T13:04:29;1.80;;;1.00;;
79755;SDS011;69239;50.678;12.280;2023-04-24T13:06:55;1.15;;;1.00;;
79755;SDS011;69239;50.678;12.280;2023-04-24T13:09:20;1.33;;;1.00;;
79755;SDS011;69239;50.678;12.280;2023-04-24T13:11:46;2.53;;;1.00;;
79755;SDS011;69239;50.678;12.280;2023-04-24T13:14:11;1.55;;;1.08;;
79755;SDS011;69239;50.678;12.280;2023-04-24T13:16:37;1.40;;;1.30;;
79755;SDS011;69239;50.678;12.280;2023-04-24T13:19:02;1.35;;;1.25;;
79755;SDS011;69239;50.678;12.280;2023-04-24T13:21:28;1.00;;;0.80;;
79755;SDS011;69239;50.678;12.280;2023-04-24T13:23:55;1.73;;;0.70;;
79755;SDS011;69239;50.678;12.280;2023-04-24T13:26:21;1.10;;;1.00;;
79755;SDS011;69239;50.678;12.280;2023-04-24T13:28:46;1.33;;;0.85;;
79755;SDS011;69239;50.678;12.280;2023-04-24T13:31:11;1.02;;;0.85;;
79755;SDS011;69239;50.678;12.280;2023-04-24T13:33:37;2.22;;;1.65;;
79755;SDS011;69239;50.678;12.280;2023-04-24T13:36:02;0.88;;;0.82;;
79755;SDS011;69239;50.678;12.280;2023-04-24T13:38:28;0.95;;;0.70;;
79755;SDS011;69239;50.678;12.280;2023-04-24T13:40:53;2.78;;;0.68;;
79755;SDS011;69239;50.678;12.280;2023-04-24T13:43:19;1.90;;;1.27;;
79755;SDS011;69239;50.678;12.280;2023-04-24T13:45:45;1.80;;;0.90;;
79755;SDS011;69239;50.678;12.280;2023-04-24T13:48:10;1.90;;;1.52;;
79755;SDS011;69239;50.678;12.280;2023-04-24T13:50:36;1.50;;;0.90;;
79755;SDS011;69239;50.678;12.280;2023-04-24T13:53:02;1.80;;;1.40;;
79755;SDS011;69239;50.678;12.280;2023-04-24T13:55:27;3.25;;;1.08;;
79755;SDS011;69239;50.678;12.280;2023-04-24T13:57:52;2.08;;;1.00;;
79755;SDS011;69239;50.678;12.280;2023-04-24T14:00:20;1.63;;;1.00;;
79755;SDS011;69239;50.678;12.280;2023-04-24T14:02:45;1.42;;;1.33;;
79755;SDS011;69239;50.678;12.280;2023-04-24T14:05:12;1.25;;;1.02;;
79755;SDS011;69239;50.678;12.280;2023-04-24T14:07:40;3.97;;;1.98;;
79755;SDS011;69239;50.678;12.280;2023-04-24T14:10:05;3.20;;;2.67;;
79755;SDS011;69239;50.678;12.280;2023-04-24T14:12:31;2.33;;;1.00;;
79755;SDS011;69239;50.678;12.280;2023-04-24T14:14:57;2.50;;;1.00;;
79755;SDS011;69239;50.678;12.280;2023-04-24T14:17:22;0.95;;;0.75;;
79755;SDS011;69239;50.678;12.280;2023-04-24T14:19:48;1.38;;;0.77;;
79755;SDS011;69239;50.678;12.280;2023-04-24T14:22:13;2.30;;;1.30;;
79755;SDS011;69239;50.678;12.280;2023-04-24T14:24:38;2.40;;;0.82;;
79755;SDS011;69239;50.678;12.280;2023-04-24T14:27:04;3.05;;;0.80;;
79755;SDS011;69239;50.678;12.280;2023-04-24T14:29:29;0.70;;;0.70;;
79755;SDS011;69239;50.678;12.280;2023-04-24T14:31:55;1.50;;;0.80;;
79755;SDS011;69239;50.678;12.280;2023-04-24T14:34:20;0.93;;;0.68;;
79755;SDS011;69239;50.678;12.280;2023-04-24T14:36:45;5.30;;;1.00;;
79755;SDS011;69239;50.678;12.280;2023-04-24T14:39:11;1.15;;;1.00;;
79755;SDS011;69239;50.678;12.280;2023-04-24T14:41:37;1.00;;;0.90;;
79755;SDS011;69239;50.678;12.280;2023-04-24T14:44:04;1.17;;;0.70;;
79755;SDS011;69239;50.678;12.280;2023-04-24T14:46:30;0.80;;;0.70;;
79755;SDS011;69239;50.678;12.280;2023-04-24T14:48:56;1.02;;;0.80;;
79755;SDS011;69239;50.678;12.280;2023-04-24T14:51:22;0.70;;;0.60;;